sensor_id;sensor_type;location;lat;lon;timestamp;pressure;altitude;pressure_sealevel;temperature;humidity
58955;BME280;45815;52.334;5.024;2023-08-08T00:00:47;101445.75;;;15.69;100.00
58955;BME280;45815;52.334;5.024;2023-08-08T00:03:13;101446.59;;;15.68;100.00
58955;BME280;45815;52.334;5.024;2023-08-08T00:05:38;101447.44;;;15.62;100.00
58955;BME280;45815;52.334;5.024;2023-08-08T00:08:04;101443.00;;;15.58;100.00
58955;BME280;45815;52.334;5.024;2023-08-08T00:10:29;101435.06;;;15.57;100.00
58955;BME280;45815;52.334;5.024;2023-08-08T00:12:55;101437.72;;;15.57;100.00
58955;BME280;45815;52.334;5.024;2023-08-08T00:15:20;101443.03;;;15.63;100.00
58955;BME280;45815;52.334;5.024;2023-08-08T00:17:46;101436.88;;;15.66;100.00
58955;BME280;45815;52.334;5.024;2023-08-08T00:20:12;101434.22;;;15.66;100.00
58955;BME280;45815;52.334;5.024;2023-08-08T00:22:37;101430.72;;;15.68;100.00
58955;BME280;45815;52.334;5.024;2023-08-08T00:25:03;101426.34;;;15.69;100.00
58955;BME280;45815;52.334;5.024;2023-08-08T00:27:29;101427.19;;;15.68;100.00
58955;BME280;45815;52.334;5.024;2023-08-08T00:29:54;101428.97;;;15.67;100.00
58955;BME280;45815;52.334;5.024;2023-08-08T00:32:20;101420.13;;;15.68;100.00
58955;BME280;45815;52.334;5.024;2023-08-08T00:34:45;101423.72;;;15.70;100.00
58955;BME280;45815;52.334;5.024;2023-08-08T00:37:11;101424.59;;;15.71;100.00
58955;BME280;45815;52.334;5.024;2023-08-08T00:39:36;101430.78;;;15.71;100.00
58955;BME280;45815;52.334;5.024;2023-08-08T00:42:02;101421.09;;;15.73;100.00
58955;BME280;45815;52.334;5.024;2023-08-08T00:44:28;101421.97;;;15.75;100.00
58955;BME280;45815;52.334;5.024;2023-08-08T00:46:54;101425.53;;;15.77;100.00
58955;BME280;45815;52.334;5.024;2023-08-08T00:49:19;101428.19;;;15.79;100.00
58955;BME280;45815;52.334;5.024;2023-08-08T00:51:46;101429.97;;;15.78;100.00
58955;BME280;45815;52.334;5.024;2023-08-08T00:54:12;101416.72;;;15.81;100.00
58955;BME280;45815;52.334;5.024;2023-08-08T00:56:38;101410.53;;;15.78;100.00
58955;BME280;45815;52.334;5.024;2023-08-08T00:59:04;101421.16;;;15.84;100.00
58955;BME280;45815;52.334;5.024;2023-08-08T01:01:29;101418.50;;;15.82;100.00
58955;BME280;45815;52.334;5.024;2023-08-08T01:03:55;101419.41;;;15.83;100.00
58955;BME280;45815;52.334;5.024;2023-08-08T01:06:37;101424.69;;;15.81;100.00
58955;BME280;45815;52.334;5.024;2023-08-08T01:09:18;101417.63;;;15.83;100.00
58955;BME280;45815;52.334;5.024;2023-08-08T01:11:46;101421.19;;;15.86;100.00
58955;BME280;45815;52.334;5.024;2023-08-08T01:14:16;101427.38;;;15.88;100.00
58955;BME280;45815;52.334;5.024;2023-08-08T01:16:44;101422.03;;;15.85;100.00
58955;BME280;45815;52.334;5.024;2023-08-08T01:19:15;101401.75;;;15.80;100.00
58955;BME280;45815;52.334;5.024;2023-08-08T01:21:45;101409.69;;;15.87;100.00
58955;BME280;45815;52.334;5.024;2023-08-08T01:26:39;101409.69;;;15.87;100.00
58955;BME280;45815;52.334;5.024;2023-08-08T01:29:05;101406.19;;;15.88;100.00
58955;BME280;45815;52.334;5.024;2023-08-08T01:31:31;101406.19;;;15.88;100.00
58955;BME280;45815;52.334;5.024;2023-08-08T01:33:56;101402.66;;;15.89;100.00
58955;BME280;45815;52.334;5.024;2023-08-08T01:36:28;101394.69;;;15.84;100.00
58955;BME280;45815;52.334;5.024;2023-08-08T01:38:59;101400.91;;;15.88;100.00
58955;BME280;45815;52.334;5.024;2023-08-08T01:41:34;101396.47;;;15.87;100.00
58955;BME280;45815;52.334;5.024;2023-08-08T01:44:01;101389.41;;;15.86;100.00
58955;BME280;45815;52.334;5.024;2023-08-08T01:46:28;101382.34;;;15.86;100.00
58955;BME280;45815;52.334;5.024;2023-08-08T01:48:54;101384.97;;;15.85;100.00
58955;BME280;45815;52.334;5.024;2023-08-08T01:51:20;101388.53;;;15.83;100.00
58955;BME280;45815;52.334;5.024;2023-08-08T01:53:47;101375.31;;;15.85;100.00
58955;BME280;45815;52.334;5.024;2023-08-08T01:56:13;101367.34;;;15.83;100.00
58955;BME280;45815;52.334;5.024;2023-08-08T01:58:38;101368.22;;;15.84;100.00
58955;BME280;45815;52.334;5.024;2023-08-08T02:01:03;101359.41;;;15.83;100.00
58955;BME280;45815;52.334;5.024;2023-08-08T02:03:29;101356.72;;;15.82;100.00
58955;BME280;45815;52.334;5.024;2023-08-08T02:05:54;101362.03;;;15.82;100.00
58955;BME280;45815;52.334;5.024;2023-08-08T02:08:20;101362.03;;;15.80;100.00
58955;BME280;45815;52.334;5.024;2023-08-08T02:10:45;101362.03;;;15.79;100.00
58955;BME280;45815;52.334;5.024;2023-08-08T02:13:11;101352.28;;;15.78;100.00
58955;BME280;45815;52.334;5.024;2023-08-08T02:15:36;101352.28;;;15.78;100.00
58955;BME280;45815;52.334;5.024;2023-08-08T02:18:02;101349.66;;;15.73;100.00
58955;BME280;45815;52.334;5.024;2023-08-08T02:20:29;101343.44;;;15.73;100.00
58955;BME280;45815;52.334;5.024;2023-08-08T02:22:54;101343.44;;;15.71;100.00
58955;BME280;45815;52.334;5.024;2023-08-08T02:25:20;101357.56;;;15.72;100.00
58955;BME280;45815;52.334;5.024;2023-08-08T02:27:45;101353.97;;;15.68;100.00
58955;BME280;45815;52.334;5.024;2023-08-08T02:30:11;101353.97;;;15.65;100.00
58955;BME280;45815;52.334;5.024;2023-08-08T02:32:37;101347.75;;;15.63;100.00
58955;BME280;45815;52.334;5.024;2023-08-08T02:35:02;101350.41;;;15.60;100.00
58955;BME280;45815;52.334;5.024;2023-08-08T02:37:28;101343.31;;;15.56;100.00
58955;BME280;45815;52.334;5.024;2023-08-08T02:39:53;101352.13;;;15.53;100.00
58955;BME280;45815;52.334;5.024;2023-08-08T02:42:19;101353.88;;;15.51;100.00
58955;BME280;45815;52.334;5.024;2023-08-08T02:44:44;101343.28;;;15.48;100.00
58955;BME280;45815;52.334;5.024;2023-08-08T02:47:10;101340.59;;;15.47;100.00
58955;BME280;45815;52.334;5.024;2023-08-08T02:49:35;101339.69;;;15.45;100.00
58955;BME280;45815;52.334;5.024;2023-08-08T02:52:01;101332.66;;;15.47;100.00
58955;BME280;45815;52.334;5.024;2023-08-08T02:54:29;101333.56;;;15.46;100.00
58955;BME280;45815;52.334;5.024;2023-08-08T02:56:54;101337.97;;;15.48;100.00
58955;BME280;45815;52.334;5.024;2023-08-08T02:59:20;101331.81;;;15.48;100.00
58955;BME280;45815;52.334;5.024;2023-08-08T03:01:46;101336.22;;;15.49;100.00
58955;BME280;45815;52.334;5.024;2023-08-08T03:04:16;101337.97;;;15.50;100.00
58955;BME280;45815;52.334;5.024;2023-08-08T03:06:41;101330.03;;;15.50;100.00
58955;BME280;45815;52.334;5.024;2023-08-08T03:09:07;101336.22;;;15.49;100.00
58955;BME280;45815;52.334;5.024;2023-08-08T03:11:34;101335.31;;;15.47;100.00
58955;BME280;45815;52.334;5.024;2023-08-08T03:14:00;101328.25;;;15.46;100.00
58955;BME280;45815;52.334;5.024;2023-08-08T03:16:26;101327.34;;;15.45;100.00
58955;BME280;45815;52.334;5.024;2023-08-08T03:18:53;101320.31;;;15.44;100.00
58955;BME280;45815;52.334;5.024;2023-08-08T03:21:18;101315.00;;;15.43;100.00
58955;BME280;45815;52.334;5.024;2023-08-08T03:23:44;101317.63;;;15.39;100.00
58955;BME280;45815;52.334;5.024;2023-08-08T03:26:10;101314.97;;;15.36;100.00
58955;BME280;45815;52.334;5.024;2023-08-08T03:28:35;101311.41;;;15.31;100.00
58955;BME280;45815;52.334;5.024;2023-08-08T03:31:01;101312.28;;;15.33;100.00
58955;BME280;45815;52.334;5.024;2023-08-08T03:33:29;101312.28;;;15.30;100.00
58955;BME280;45815;52.334;5.024;2023-08-08T03:35:54;101310.50;;;15.29;100.00
58955;BME280;45815;52.334;5.024;2023-08-08T03:38:20;101308.72;;;15.25;100.00
58955;BME280;45815;52.334;5.024;2023-08-08T03:40:45;101313.09;;;15.22;100.00
58955;BME280;45815;52.334;5.024;2023-08-08T03:43:10;101301.63;;;15.18;100.00
58955;BME280;45815;52.334;5.024;2023-08-08T03:45:36;101307.75;;;15.14;100.00
58955;BME280;45815;52.334;5.024;2023-08-08T03:48:01;101301.56;;;15.10;100.00
58955;BME280;45815;52.334;5.024;2023-08-08T03:50:28;101290.06;;;15.07;100.00
58955;BME280;45815;52.334;5.024;2023-08-08T03:52:53;101293.59;;;15.06;100.00
58955;BME280;45815;52.334;5.024;2023-08-08T03:55:19;101297.97;;;15.04;100.00
58955;BME280;45815;52.334;5.024;2023-08-08T03:57:44;101295.31;;;15.02;100.00
58955;BME280;45815;52.334;5.024;2023-08-08T04:00:11;101297.06;;;15.00;100.00
58955;BME280;45815;52.334;5.024;2023-08-08T04:02:39;101291.72;;;14.92;100.00
58955;BME280;45815;52.334;5.024;2023-08-08T04:05:05;101286.38;;;14.86;100.00
58955;BME280;45815;52.334;5.024;2023-08-08T04:07:31;101284.59;;;14.82;100.00
58955;BME280;45815;52.334;5.024;2023-08-08T04:09:57;101295.22;;;14.87;100.00
58955;BME280;45815;52.334;5.024;2023-08-08T04:12:23;101284.59;;;14.85;100.00
58955;BME280;45815;52.334;5.024;2023-08-08T04:14:48;101289.00;;;14.83;100.00
58955;BME280;45815;52.334;5.024;2023-08-08T04:17:14;101285.47;;;14.84;100.00
58955;BME280;45815;52.334;5.024;2023-08-08T04:19:39;101286.38;;;14.85;100.00
58955;BME280;45815;52.334;5.024;2023-08-08T04:22:04;101294.31;;;14.85;100.00
58955;BME280;45815;52.334;5.024;2023-08-08T04:24:30;101288.09;;;14.84;100.00
58955;BME280;45815;52.334;5.024;2023-08-08T04:26:55;101294.28;;;14.83;100.00
58955;BME280;45815;52.334;5.024;2023-08-08T04:29:21;101291.63;;;14.83;100.00
58955;BME280;45815;52.334;5.024;2023-08-08T04:31:46;101301.31;;;14.81;100.00
58955;BME280;45815;52.334;5.024;2023-08-08T04:34:12;101294.25;;;14.80;100.00
58955;BME280;45815;52.334;5.024;2023-08-08T04:36:37;101289.84;;;14.81;100.00
58955;BME280;45815;52.334;5.024;2023-08-08T04:39:03;101295.13;;;14.79;100.00
58955;BME280;45815;52.334;5.024;2023-08-08T04:41:28;101291.59;;;14.78;100.00
58955;BME280;45815;52.334;5.024;2023-08-08T04:43:54;101292.44;;;14.76;100.00
58955;BME280;45815;52.334;5.024;2023-08-08T04:46:19;101300.34;;;14.74;100.00
58955;BME280;45815;52.334;5.024;2023-08-08T04:48:45;101296.81;;;14.72;100.00
58955;BME280;45815;52.334;5.024;2023-08-08T04:51:10;101305.66;;;14.73;100.00
58955;BME280;45815;52.334;5.024;2023-08-08T04:53:36;101303.00;;;14.73;100.00
58955;BME280;45815;52.334;5.024;2023-08-08T04:56:01;101300.38;;;14.76;100.00
58955;BME280;45815;52.334;5.024;2023-08-08T04:58:26;101299.53;;;14.80;100.00
58955;BME280;45815;52.334;5.024;2023-08-08T05:00:52;101294.28;;;14.83;100.00
58955;BME280;45815;52.334;5.024;2023-08-08T05:03:18;101296.03;;;14.84;100.00
58955;BME280;45815;52.334;5.024;2023-08-08T05:05:43;101293.47;;;14.90;100.00
58955;BME280;45815;52.334;5.024;2023-08-08T05:08:15;101289.97;;;14.91;100.00
58955;BME280;45815;52.334;5.024;2023-08-08T05:10:40;101290.81;;;14.93;100.00
58955;BME280;45815;52.334;5.024;2023-08-08T05:13:06;101281.06;;;14.86;100.00
58955;BME280;45815;52.334;5.024;2023-08-08T05:15:31;101283.78;;;14.89;100.00
58955;BME280;45815;52.334;5.024;2023-08-08T05:17:57;101284.63;;;14.88;100.00
58955;BME280;45815;52.334;5.024;2023-08-08T05:20:22;101290.78;;;14.87;100.00
58955;BME280;45815;52.334;5.024;2023-08-08T05:22:48;101287.25;;;14.88;100.00
58955;BME280;45815;52.334;5.024;2023-08-08T05:25:13;101288.16;;;14.90;100.00
58955;BME280;45815;52.334;5.024;2023-08-08T05:27:39;101289.06;;;14.92;100.00
58955;BME280;45815;52.334;5.024;2023-08-08T05:30:05;101289.09;;;14.94;100.00
58955;BME280;45815;52.334;5.024;2023-08-08T05:32:31;101306.72;;;14.96;100.00
58955;BME280;45815;52.334;5.024;2023-08-08T05:34:57;101294.38;;;14.94;100.00
58955;BME280;45815;52.334;5.024;2023-08-08T05:37:26;101313.84;;;15.04;100.00
58955;BME280;45815;52.334;5.024;2023-08-08T05:39:53;101305.03;;;15.06;100.00
58955;BME280;45815;52.334;5.024;2023-08-08T05:42:18;101299.78;;;15.08;100.00
58955;BME280;45815;52.334;5.024;2023-08-08T05:44:44;101290.97;;;15.12;100.00
58955;BME280;45815;52.334;5.024;2023-08-08T05:47:10;101293.66;;;15.16;100.00
58955;BME280;45815;52.334;5.024;2023-08-08T05:49:35;101299.00;;;15.19;100.00
58955;BME280;45815;52.334;5.024;2023-08-08T05:52:01;101299.00;;;15.23;100.00
58955;BME280;45815;52.334;5.024;2023-08-08T05:54:26;101302.56;;;15.28;100.00
58955;BME280;45815;52.334;5.024;2023-08-08T05:56:53;101295.53;;;15.31;100.00
58955;BME280;45815;52.334;5.024;2023-08-08T05:59:19;101302.59;;;15.35;100.00
58955;BME280;45815;52.334;5.024;2023-08-08T06:01:44;101300.88;;;15.36;100.00
58955;BME280;45815;52.334;5.024;2023-08-08T06:04:10;101306.16;;;15.37;100.00
58955;BME280;45815;52.334;5.024;2023-08-08T06:06:35;101297.34;;;15.40;100.00
58955;BME280;45815;52.334;5.024;2023-08-08T06:09:01;101296.47;;;15.43;100.00
58955;BME280;45815;52.334;5.024;2023-08-08T06:11:26;101303.53;;;15.45;100.00
58955;BME280;45815;52.334;5.024;2023-08-08T06:13:52;101300.94;;;15.50;100.00
58955;BME280;45815;52.334;5.024;2023-08-08T06:16:19;101303.63;;;15.53;100.00
58955;BME280;45815;52.334;5.024;2023-08-08T06:18:45;101297.44;;;15.55;100.00
58955;BME280;45815;52.334;5.024;2023-08-08T06:21:10;101297.47;;;15.61;100.00
58955;BME280;45815;52.334;5.024;2023-08-08T06:23:36;101305.44;;;15.63;100.00
58955;BME280;45815;52.334;5.024;2023-08-08T06:26:02;101307.25;;;15.69;100.00
58955;BME280;45815;52.334;5.024;2023-08-08T06:28:27;101305.50;;;15.72;100.00
58955;BME280;45815;52.334;5.024;2023-08-08T06:30:52;101299.38;;;15.76;100.00
58955;BME280;45815;52.334;5.024;2023-08-08T06:33:18;101293.16;;;15.73;100.00
58955;BME280;45815;52.334;5.024;2023-08-08T06:35:44;101305.56;;;15.81;100.00
58955;BME280;45815;52.334;5.024;2023-08-08T06:38:09;101292.31;;;15.81;100.00
58955;BME280;45815;52.334;5.024;2023-08-08T06:40:35;101302.03;;;15.87;100.00
58955;BME280;45815;52.334;5.024;2023-08-08T06:43:00;101304.72;;;15.89;100.00
58955;BME280;45815;52.334;5.024;2023-08-08T06:45:26;101305.59;;;15.91;100.00
58955;BME280;45815;52.334;5.024;2023-08-08T06:47:51;101309.16;;;15.93;100.00
58955;BME280;45815;52.334;5.024;2023-08-08T06:50:17;101309.16;;;15.99;100.00
58955;BME280;45815;52.334;5.024;2023-08-08T06:52:43;101310.06;;;16.06;100.00
58955;BME280;45815;52.334;5.024;2023-08-08T06:55:09;101277.41;;;16.00;100.00
58955;BME280;45815;52.334;5.024;2023-08-08T06:57:34;101299.53;;;16.13;100.00
58955;BME280;45815;52.334;5.024;2023-08-08T07:00:01;101300.44;;;16.18;100.00
58955;BME280;45815;52.334;5.024;2023-08-08T07:02:26;101298.66;;;16.23;100.00
58955;BME280;45815;52.334;5.024;2023-08-08T07:04:52;101300.44;;;16.28;100.00
58955;BME280;45815;52.334;5.024;2023-08-08T07:07:17;101298.69;;;16.31;100.00
58955;BME280;45815;52.334;5.024;2023-08-08T07:09:43;101298.72;;;16.39;100.00
58955;BME280;45815;52.334;5.024;2023-08-08T07:12:09;101294.31;;;16.44;100.00
58955;BME280;45815;52.334;5.024;2023-08-08T07:14:34;101291.69;;;16.49;100.00
58955;BME280;45815;52.334;5.024;2023-08-08T07:17:00;101280.19;;;16.46;100.00
58955;BME280;45815;52.334;5.024;2023-08-08T07:19:27;101293.44;;;16.59;100.00
58955;BME280;45815;52.334;5.024;2023-08-08T07:21:52;101293.47;;;16.63;100.00
58955;BME280;45815;52.334;5.024;2023-08-08T07:24:18;101289.06;;;16.72;100.00
58955;BME280;45815;52.334;5.024;2023-08-08T07:26:43;101292.63;;;16.81;100.00
58955;BME280;45815;52.334;5.024;2023-08-08T07:29:09;101289.97;;;16.89;100.00
58955;BME280;45815;52.334;5.024;2023-08-08T07:31:34;101297.03;;;16.99;100.00
58955;BME280;45815;52.334;5.024;2023-08-08T07:34:00;101289.09;;;17.07;100.00
58955;BME280;45815;52.334;5.024;2023-08-08T07:36:25;101293.50;;;17.09;100.00
58955;BME280;45815;52.334;5.024;2023-08-08T07:38:51;101293.50;;;17.09;100.00
58955;BME280;45815;52.334;5.024;2023-08-08T07:41:16;101288.19;;;17.06;100.00
58955;BME280;45815;52.334;5.024;2023-08-08T07:43:43;101289.94;;;17.09;100.00
58955;BME280;45815;52.334;5.024;2023-08-08T07:46:09;101284.66;;;17.12;100.00
58955;BME280;45815;52.334;5.024;2023-08-08T07:48:34;101280.25;;;17.14;100.00
58955;BME280;45815;52.334;5.024;2023-08-08T07:51:00;101274.91;;;17.20;100.00
58955;BME280;45815;52.334;5.024;2023-08-08T07:53:25;101281.97;;;17.32;100.00
58955;BME280;45815;52.334;5.024;2023-08-08T07:55:51;101281.06;;;17.39;100.00
58955;BME280;45815;52.334;5.024;2023-08-08T07:58:16;101284.63;;;17.38;100.00
58955;BME280;45815;52.334;5.024;2023-08-08T08:00:41;101275.75;;;17.44;100.00
58955;BME280;45815;52.334;5.024;2023-08-08T08:03:07;101273.13;;;17.47;100.00
58955;BME280;45815;52.334;5.024;2023-08-08T08:05:32;101275.72;;;17.64;100.00
58955;BME280;45815;52.334;5.024;2023-08-08T08:08:00;101268.63;;;17.63;100.00
58955;BME280;45815;52.334;5.024;2023-08-08T08:10:25;101276.56;;;17.75;100.00
58955;BME280;45815;52.334;5.024;2023-08-08T08:12:51;101282.78;;;17.82;100.00
58955;BME280;45815;52.334;5.024;2023-08-08T08:15:23;101274.75;;;17.91;100.00
58955;BME280;45815;52.334;5.024;2023-08-08T08:17:48;101263.22;;;17.97;100.00
58955;BME280;45815;52.334;5.024;2023-08-08T08:20:14;101274.66;;;18.09;100.00
58955;BME280;45815;52.334;5.024;2023-08-08T08:22:39;101264.91;;;18.19;100.00
58955;BME280;45815;52.334;5.024;2023-08-08T08:25:06;101263.91;;;18.32;100.00
58955;BME280;45815;52.334;5.024;2023-08-08T08:27:35;101261.13;;;18.51;100.00
58955;BME280;45815;52.334;5.024;2023-08-08T08:30:00;101276.94;;;18.75;100.00
58955;BME280;45815;52.334;5.024;2023-08-08T08:32:26;101260.94;;;18.82;100.00
58955;BME280;45815;52.334;5.024;2023-08-08T08:34:51;101267.84;;;19.04;100.00
58955;BME280;45815;52.334;5.024;2023-08-08T08:37:17;101267.63;;;19.26;100.00
58955;BME280;45815;52.334;5.024;2023-08-08T08:39:42;101270.25;;;19.29;100.00
58955;BME280;45815;52.334;5.024;2023-08-08T08:42:08;101265.75;;;19.37;100.00
58955;BME280;45815;52.334;5.024;2023-08-08T08:44:39;101267.34;;;19.53;100.00
58955;BME280;45815;52.334;5.024;2023-08-08T08:47:07;101267.50;;;19.38;100.00
58955;BME280;45815;52.334;5.024;2023-08-08T08:49:38;101272.56;;;19.63;100.00
58955;BME280;45815;52.334;5.024;2023-08-08T08:52:04;101277.78;;;19.75;100.00
58955;BME280;45815;52.334;5.024;2023-08-08T08:54:32;101269.63;;;19.89;100.00
58955;BME280;45815;52.334;5.024;2023-08-08T08:56:59;101275.72;;;19.98;100.00
58955;BME280;45815;52.334;5.024;2023-08-08T08:59:24;101281.09;;;19.92;100.00
58955;BME280;45815;52.334;5.024;2023-08-08T09:01:51;101283.06;;;19.78;100.00
58955;BME280;45815;52.334;5.024;2023-08-08T09:04:19;101284.91;;;19.73;100.00
58955;BME280;45815;52.334;5.024;2023-08-08T09:06:46;101279.63;;;19.68;100.00
58955;BME280;45815;52.334;5.024;2023-08-08T09:09:11;101281.44;;;19.65;100.00
58955;BME280;45815;52.334;5.024;2023-08-08T09:11:38;101286.56;;;19.83;100.00
58955;BME280;45815;52.334;5.024;2023-08-08T09:14:16;101286.06;;;20.20;100.00
58955;BME280;45815;52.334;5.024;2023-08-08T09:16:42;101273.47;;;20.31;100.00
58955;BME280;45815;52.334;5.024;2023-08-08T09:19:08;101280.44;;;20.41;100.00
58955;BME280;45815;52.334;5.024;2023-08-08T09:21:33;101287.84;;;20.21;100.00
58955;BME280;45815;52.334;5.024;2023-08-08T09:23:58;101282.59;;;20.15;100.00
58955;BME280;45815;52.334;5.024;2023-08-08T09:26:24;101272.00;;;20.12;100.00
58955;BME280;45815;52.334;5.024;2023-08-08T09:28:50;101280.88;;;20.11;100.00
58955;BME280;45815;52.334;5.024;2023-08-08T09:31:16;101283.22;;;20.35;100.00
58955;BME280;45815;52.334;5.024;2023-08-08T09:33:41;101288.94;;;20.70;100.00
58955;BME280;45815;52.334;5.024;2023-08-08T09:36:16;101278.81;;;20.92;100.00
58955;BME280;45815;52.334;5.024;2023-08-08T09:38:41;101288.56;;;20.93;100.00
58955;BME280;45815;52.334;5.024;2023-08-08T09:41:07;101292.34;;;20.79;100.00
58955;BME280;45815;52.334;5.024;2023-08-08T09:43:32;101302.38;;;20.63;100.00
58955;BME280;45815;52.334;5.024;2023-08-08T09:45:58;101287.34;;;20.58;100.00
58955;BME280;45815;52.334;5.024;2023-08-08T09:48:29;101299.44;;;20.80;100.00
58955;BME280;45815;52.334;5.024;2023-08-08T09:50:57;101299.97;;;21.02;100.00
58955;BME280;45815;52.334;5.024;2023-08-08T09:53:25;101292.16;;;20.92;100.00
58955;BME280;45815;52.334;5.024;2023-08-08T09:55:57;101313.78;;;20.73;100.00
58955;BME280;45815;52.334;5.024;2023-08-08T09:58:22;101298.72;;;20.71;100.00
58955;BME280;45815;52.334;5.024;2023-08-08T10:00:51;101306.97;;;20.51;100.00
58955;BME280;45815;52.334;5.024;2023-08-08T10:03:18;101302.66;;;20.42;100.00
58955;BME280;45815;52.334;5.024;2023-08-08T10:05:44;101296.28;;;20.51;100.00
58955;BME280;45815;52.334;5.024;2023-08-08T10:08:09;101314.28;;;20.36;100.00
58955;BME280;45815;52.334;5.024;2023-08-08T10:10:37;101286.19;;;20.14;100.00
58955;BME280;45815;52.334;5.024;2023-08-08T10:13:03;101298.41;;;20.27;100.00
58955;BME280;45815;52.334;5.024;2023-08-08T10:15:30;101306.16;;;20.45;100.00
58955;BME280;45815;52.334;5.024;2023-08-08T10:17:56;101308.22;;;20.89;100.00
58955;BME280;45815;52.334;5.024;2023-08-08T10:20:24;101294.38;;;21.16;100.00
58955;BME280;45815;52.334;5.024;2023-08-08T10:22:51;101304.94;;;21.24;100.00
58955;BME280;45815;52.334;5.024;2023-08-08T10:25:28;101298.00;;;21.14;100.00
58955;BME280;45815;52.334;5.024;2023-08-08T10:28:24;101296.13;;;21.19;100.00
58955;BME280;45815;52.334;5.024;2023-08-08T10:30:57;101280.47;;;20.97;100.00
58955;BME280;45815;52.334;5.024;2023-08-08T10:33:28;101291.72;;;21.16;100.00
58955;BME280;45815;52.334;5.024;2023-08-08T10:36:06;101284.69;;;21.12;100.00
58955;BME280;45815;52.334;5.024;2023-08-08T10:38:45;101290.22;;;21.00;100.00
58955;BME280;45815;52.334;5.024;2023-08-08T10:41:21;101290.19;;;21.01;100.00
58955;BME280;45815;52.334;5.024;2023-08-08T10:43:52;101295.22;;;21.20;100.00
58955;BME280;45815;52.334;5.024;2023-08-08T10:46:29;101303.75;;;21.42;100.00
58955;BME280;45815;52.334;5.024;2023-08-08T10:48:59;101301.75;;;21.53;100.00
58955;BME280;45815;52.334;5.024;2023-08-08T10:54:06;101302.00;;;21.41;100.00
58955;BME280;45815;52.334;5.024;2023-08-08T10:56:31;101300.41;;;21.29;100.00
58955;BME280;45815;52.334;5.024;2023-08-08T10:58:57;101304.03;;;21.23;100.00
58955;BME280;45815;52.334;5.024;2023-08-08T11:01:25;101295.94;;;21.28;100.00
58955;BME280;45815;52.334;5.024;2023-08-08T11:03:51;101307.56;;;21.25;100.00
58955;BME280;45815;52.334;5.024;2023-08-08T11:06:17;101317.22;;;21.33;100.00
58955;BME280;45815;52.334;5.024;2023-08-08T11:08:44;101305.66;;;21.34;100.00
58955;BME280;45815;52.334;5.024;2023-08-08T11:11:09;101309.13;;;21.39;100.00
58955;BME280;45815;52.334;5.024;2023-08-08T11:13:35;101304.94;;;21.24;100.00
58955;BME280;45815;52.334;5.024;2023-08-08T11:16:00;101315.63;;;21.24;100.00
58955;BME280;45815;52.334;5.024;2023-08-08T11:18:29;101315.81;;;21.13;100.00
58955;BME280;45815;52.334;5.024;2023-08-08T11:20:55;101303.47;;;21.07;100.00
58955;BME280;45815;52.334;5.024;2023-08-08T11:23:20;101313.22;;;21.07;100.00
58955;BME280;45815;52.334;5.024;2023-08-08T11:25:48;101309.59;;;21.11;100.00
58955;BME280;45815;52.334;5.024;2023-08-08T11:28:15;101310.56;;;21.07;100.00
58955;BME280;45815;52.334;5.024;2023-08-08T11:30:44;101318.53;;;21.10;100.00
58955;BME280;45815;52.334;5.024;2023-08-08T11:33:12;101312.72;;;20.83;100.00
58955;BME280;45815;52.334;5.024;2023-08-08T11:35:43;101300.44;;;20.75;100.00
58955;BME280;45815;52.334;5.024;2023-08-08T11:38:10;101306.84;;;21.16;100.00
58955;BME280;45815;52.334;5.024;2023-08-08T11:40:36;101296.00;;;21.26;100.00
58955;BME280;45815;52.334;5.024;2023-08-08T11:43:02;101301.38;;;21.23;100.00
58955;BME280;45815;52.334;5.024;2023-08-08T11:45:27;101302.53;;;21.10;100.00
58955;BME280;45815;52.334;5.024;2023-08-08T11:47:54;101304.03;;;21.23;100.00
58955;BME280;45815;52.334;5.024;2023-08-08T11:50:21;101296.72;;;21.35;100.00
58955;BME280;45815;52.334;5.024;2023-08-08T11:52:50;101298.44;;;21.39;100.00
58955;BME280;45815;52.334;5.024;2023-08-08T11:55:15;101295.56;;;21.51;100.00
58955;BME280;45815;52.334;5.024;2023-08-08T11:57:41;101303.03;;;21.80;100.00
58955;BME280;45815;52.334;5.024;2023-08-08T12:00:10;101296.75;;;21.81;100.00
58955;BME280;45815;52.334;5.024;2023-08-08T12:02:40;101283.47;;;21.77;100.00
58955;BME280;45815;52.334;5.024;2023-08-08T12:05:12;101284.31;;;21.80;100.00
58955;BME280;45815;52.334;5.024;2023-08-08T12:07:38;101304.16;;;21.67;100.00
58955;BME280;45815;52.334;5.024;2023-08-08T12:10:14;101305.28;;;21.55;100.00
58955;BME280;45815;52.334;5.024;2023-08-08T12:12:41;101305.56;;;21.40;100.00
58955;BME280;45815;52.334;5.024;2023-08-08T12:15:07;101292.09;;;21.47;100.00
58955;BME280;45815;52.334;5.024;2023-08-08T12:17:34;101296.66;;;21.39;100.00
58955;BME280;45815;52.334;5.024;2023-08-08T12:20:00;101298.19;;;21.54;100.00
58955;BME280;45815;52.334;5.024;2023-08-08T12:22:26;101299.53;;;21.27;100.00
58955;BME280;45815;52.334;5.024;2023-08-08T12:24:51;101292.63;;;21.15;100.00
58955;BME280;45815;52.334;5.024;2023-08-08T12:27:17;101300.66;;;21.15;100.00
58955;BME280;45815;52.334;5.024;2023-08-08T12:29:42;101305.03;;;21.19;100.00
58955;BME280;45815;52.334;5.024;2023-08-08T12:32:08;101311.69;;;20.92;100.00
58955;BME280;45815;52.334;5.024;2023-08-08T12:34:34;101302.75;;;20.95;100.00
58955;BME280;45815;52.334;5.024;2023-08-08T12:37:00;101292.97;;;20.95;100.00
58955;BME280;45815;52.334;5.024;2023-08-08T12:39:25;101286.16;;;20.77;100.00
58955;BME280;45815;52.334;5.024;2023-08-08T12:41:51;101305.72;;;20.78;100.00